createdAt,value
2023-01-15T00:02:01.227Z,0.91
2023-01-15T00:04:53.140Z,0.87
2023-01-15T00:27:46.072Z,0.82
2023-01-15T00:30:50.809Z,0.78
2023-01-15T00:33:37.467Z,0.90
2023-01-15T00:36:16.433Z,0.65
2023-01-15T00:42:05.129Z,0.91
2023-01-15T00:44:40.504Z,0.74
2023-01-15T00:47:19.322Z,0.75
2023-01-15T00:50:08.077Z,0.85
2023-01-15T00:52:45.321Z,0.76
2023-01-15T00:55:29.917Z,0.73
2023-01-15T01:04:29.019Z,0.72
2023-01-15T01:07:04.208Z,0.75
2023-01-15T01:09:36.917Z,0.62
2023-01-15T01:12:16.648Z,0.75
2023-01-15T01:14:50.397Z,0.68
2023-01-15T01:20:31.378Z,0.74
2023-01-15T01:23:07.417Z,0.81
2023-01-15T01:25:51.739Z,0.83
2023-01-15T01:34:36.965Z,0.61
2023-01-15T01:40:32.131Z,0.60
2023-01-15T01:49:31.398Z,0.69
2023-01-15T01:52:33.559Z,0.25
2023-01-15T01:55:18.957Z,0.20
2023-01-15T01:58:03.275Z,0.34
2023-01-15T02:06:46.198Z,0.41
2023-01-15T02:16:24.596Z,0.49
2023-01-15T02:19:32.989Z,0.61
2023-01-15T02:22:43.258Z,0.60
2023-01-15T02:25:36.394Z,0.48
2023-01-15T02:28:27.129Z,0.35
2023-01-15T02:31:12.779Z,0.18
2023-01-15T02:37:29.150Z,0.42
2023-01-15T02:40:05.702Z,0.52
2023-01-15T02:42:46.119Z,0.41
2023-01-15T02:45:38.052Z,0.45
2023-01-15T02:48:26.597Z,0.37
2023-01-15T02:51:11.114Z,0.33
2023-01-15T02:56:38.240Z,0.31
2023-01-15T02:59:15.240Z,0.38
2023-01-15T03:01:57.308Z,0.35
2023-01-15T03:11:04.915Z,0.04
2023-01-15T03:17:29.866Z,0.20
2023-01-15T03:20:32.117Z,0.21
2023-01-15T03:29:39.051Z,0.11
2023-01-15T03:32:32.130Z,0.34
2023-01-15T03:36:02.078Z,0.49
2023-01-15T03:38:42.139Z,0.50
2023-01-15T03:41:36.143Z,0.48
2023-01-15T03:44:41.403Z,0.32
2023-01-15T03:47:44.437Z,0.23
2023-01-15T03:50:46.708Z,0.43
2023-01-15T03:53:26.368Z,0.33
2023-01-15T03:56:43.279Z,0.29
2023-01-15T03:59:17.173Z,0.20
2023-01-15T04:01:57.227Z,0.35
2023-01-15T04:04:31.247Z,0.36
2023-01-15T04:07:24.812Z,0.30
2023-01-15T04:09:58.237Z,0.34
2023-01-15T04:12:35.391Z,0.29
2023-01-15T04:18:29.280Z,0.39
2023-01-15T04:27:08.925Z,0.35
2023-01-15T04:32:38.959Z,0.26
2023-01-15T04:35:29.601Z,0.35
2023-01-15T04:38:22.546Z,0.32
2023-01-15T04:41:17.421Z,0.30
2023-01-15T04:44:06.852Z,0.36
2023-01-15T04:46:47.009Z,0.39
2023-01-15T04:49:18.027Z,0.31
2023-01-15T04:51:57.177Z,0.38
2023-01-15T04:54:28.735Z,0.34
2023-01-15T04:56:58.667Z,0.34
2023-01-15T04:59:30.427Z,0.27
2023-01-15T05:02:08.499Z,0.19
2023-01-15T05:07:28.214Z,0.31
2023-01-15T05:13:13.453Z,0.34
2023-01-15T05:16:00.328Z,0.38
2023-01-15T05:18:51.901Z,0.16
2023-01-15T05:21:25.146Z,0.33
2023-01-15T05:23:58.026Z,0.30
2023-01-15T05:26:36.240Z,0.43
2023-01-15T05:29:09.513Z,0.45
2023-01-15T05:31:41.523Z,0.23
2023-01-15T05:34:11.986Z,0.24
2023-01-15T05:36:41.613Z,0.27
2023-01-15T05:39:20.135Z,0.26
2023-01-15T05:41:51.868Z,0.41
2023-01-15T05:44:36.419Z,0.54
2023-01-15T06:13:17.498Z,0.40
2023-01-15T06:16:11.514Z,0.47
2023-01-15T06:21:43.834Z,0.78
2023-01-15T06:27:15.082Z,0.78
2023-01-15T06:29:45.207Z,0.70
2023-01-15T06:47:19.388Z,0.68
2023-01-15T06:49:59.117Z,0.80
2023-01-15T06:53:05.105Z,0.79
2023-01-15T07:08:18.924Z,0.71
2023-01-15T11:19:40.766Z,1.30
2023-01-15T11:22:19.640Z,1.33
2023-01-15T11:24:58.037Z,1.39
2023-01-15T11:27:30.982Z,1.38
2023-01-15T11:30:07.815Z,1.46
2023-01-15T11:32:41.359Z,1.44
2023-01-15T11:35:20.562Z,1.65
2023-01-15T11:38:12.544Z,1.56
2023-01-15T11:41:02.766Z,1.61
2023-01-15T11:43:51.341Z,1.53
2023-01-15T11:46:56.700Z,1.72
2023-01-15T11:49:48.876Z,1.63
2023-01-15T11:52:21.180Z,1.48
2023-01-15T11:54:54.255Z,1.47
2023-01-15T11:57:33.970Z,1.53
2023-01-15T12:00:04.774Z,1.72
2023-01-15T12:02:51.044Z,1.68
2023-01-15T12:05:25.485Z,1.84
2023-01-15T12:07:59.282Z,1.79
2023-01-15T12:11:17.170Z,1.71
2023-01-15T12:14:31.697Z,1.71
2023-01-15T12:17:20.849Z,1.79
2023-01-15T12:20:14.760Z,1.75
2023-01-15T12:23:15.314Z,1.81
2023-01-15T12:26:23.373Z,1.82
2023-01-15T12:29:02.431Z,1.72
2023-01-15T12:31:41.817Z,1.75
2023-01-15T12:34:27.638Z,1.87
2023-01-15T12:37:40.070Z,1.83
2023-01-15T12:40:27.032Z,1.90
2023-01-15T12:43:37.165Z,1.85
2023-01-15T12:46:11.479Z,2.01
2023-01-15T12:48:59.859Z,1.93
2023-01-15T12:51:54.674Z,1.88
2023-01-15T12:54:47.293Z,1.88
2023-01-15T12:57:46.260Z,1.90
2023-01-15T13:00:45.533Z,2.01
2023-01-15T13:03:41.132Z,1.88
2023-01-15T13:06:15.423Z,1.88
2023-01-15T13:09:21.607Z,1.97
2023-01-15T13:11:54.798Z,2.04
2023-01-15T13:14:24.829Z,2.09
2023-01-15T13:17:06.847Z,2.02
2023-01-15T13:20:11.535Z,2.00
2023-01-15T13:23:28.086Z,2.09
2023-01-15T13:26:24.561Z,2.06
2023-01-15T13:29:28.991Z,2.01
2023-01-15T13:32:26.810Z,2.11
2023-01-15T13:35:06.507Z,1.98
2023-01-15T13:37:52.649Z,1.83
2023-01-15T13:40:37.619Z,2.03
2023-01-15T13:43:09.790Z,2.03
2023-01-15T13:45:44.658Z,2.05
2023-01-15T13:48:31.421Z,2.05
2023-01-15T13:51:03.180Z,2.00
2023-01-15T13:53:38.492Z,1.92
2023-01-15T13:56:12.620Z,1.84
2023-01-15T13:59:05.701Z,1.84
2023-01-15T14:01:37.368Z,1.90
2023-01-15T14:04:12.564Z,1.94
2023-01-15T14:06:46.576Z,1.91
2023-01-15T14:09:21.122Z,1.84
2023-01-15T14:12:16.789Z,1.89
2023-01-15T14:15:31.232Z,2.00
2023-01-15T14:18:20.749Z,1.95
2023-01-15T14:21:26.202Z,1.85
2023-01-15T14:24:34.137Z,1.82
2023-01-15T14:27:18.901Z,1.81
2023-01-15T14:30:20.056Z,1.90
2023-01-15T14:33:06.174Z,1.86
2023-01-15T14:35:46.561Z,1.83
2023-01-15T14:38:20.506Z,1.87
2023-01-15T14:41:03.468Z,1.82
2023-01-15T14:43:36.275Z,1.82
2023-01-15T14:46:35.968Z,1.87
2023-01-15T14:49:28.636Z,1.81
2023-01-15T14:52:00.813Z,1.76
2023-01-15T14:54:29.682Z,1.69
2023-01-15T14:57:01.910Z,1.91
2023-01-15T14:59:56.066Z,1.89
2023-01-15T15:02:40.255Z,1.83
2023-01-15T15:05:17.310Z,1.93
2023-01-15T15:08:00.893Z,1.94
2023-01-15T15:10:40.776Z,1.95
2023-01-15T15:13:21.278Z,1.87
2023-01-15T15:16:02.430Z,1.79
2023-01-15T15:19:05.844Z,1.77
2023-01-15T15:21:40.954Z,1.68
2023-01-15T15:24:49.206Z,1.72
2023-01-15T15:27:41.840Z,1.62
2023-01-15T15:30:33.025Z,1.71
2023-01-15T15:33:22.521Z,1.74
2023-01-15T15:35:57.809Z,1.83
2023-01-15T15:41:15.103Z,1.83
2023-01-15T15:44:13.606Z,1.69
2023-01-15T15:47:11.111Z,1.79
2023-01-15T15:49:52.321Z,1.86
2023-01-15T15:52:27.290Z,1.68
2023-01-15T15:55:07.831Z,1.81
2023-01-15T15:57:38.893Z,1.77
2023-01-15T16:00:22.064Z,1.73
2023-01-15T16:03:24.812Z,1.73
2023-01-15T16:06:13.306Z,1.65
2023-01-15T16:08:54.469Z,1.85
2023-01-15T16:17:29.069Z,1.69
2023-01-15T19:49:23.042Z,1.69
2023-01-15T19:52:24.520Z,1.57
2023-01-15T20:16:50.623Z,1.08
2023-01-15T21:02:22.868Z,1.44
2023-01-15T21:04:51.649Z,1.39
2023-01-15T21:07:19.813Z,1.42
2023-01-15T21:09:48.069Z,1.52
2023-01-15T21:12:20.373Z,1.65
2023-01-15T21:14:49.613Z,1.64
2023-01-15T21:17:18.951Z,1.60
2023-01-15T21:19:46.881Z,1.76
2023-01-15T21:22:15.483Z,1.73
2023-01-15T21:24:43.963Z,1.57
2023-01-15T21:27:11.905Z,1.56
2023-01-15T21:29:42.600Z,1.59
2023-01-15T21:32:10.472Z,1.72
2023-01-15T21:34:42.657Z,1.64
2023-01-15T21:37:10.832Z,1.52
2023-01-15T21:39:42.322Z,1.70
2023-01-15T21:42:41.726Z,1.65
2023-01-15T21:45:14.074Z,1.58
2023-01-15T21:47:44.865Z,1.74
2023-01-15T21:50:25.875Z,1.85
2023-01-15T21:52:55.218Z,1.71
2023-01-15T21:55:24.392Z,1.81
2023-01-15T21:57:57.580Z,1.81
2023-01-15T22:00:26.617Z,1.86
2023-01-15T22:02:57.147Z,1.94
2023-01-15T22:05:28.844Z,1.77
2023-01-15T22:07:59.052Z,1.69
2023-01-15T22:10:28.823Z,1.59
2023-01-15T22:12:59.281Z,1.77
2023-01-15T22:15:28.903Z,1.51
2023-01-15T22:17:59.725Z,1.43
2023-01-15T22:20:29.815Z,1.69
2023-01-15T22:22:59.687Z,1.46
2023-01-15T22:25:28.897Z,1.49
2023-01-15T22:27:58.886Z,1.47
2023-01-15T22:30:26.695Z,1.52
2023-01-15T22:33:03.225Z,1.51
2023-01-15T22:35:31.982Z,1.60
2023-01-15T22:38:02.116Z,1.41
2023-01-15T22:40:38.031Z,1.35
2023-01-15T22:43:10.060Z,1.51
2023-01-15T22:45:41.845Z,1.36
2023-01-15T22:48:11.775Z,1.54
2023-01-15T22:50:47.928Z,1.32
2023-01-15T22:53:17.416Z,1.29
2023-01-15T22:55:59.485Z,1.57
2023-01-15T22:58:34.663Z,1.66
2023-01-15T23:01:06.379Z,1.50
2023-01-15T23:03:37.749Z,1.48
2023-01-15T23:06:18.368Z,1.53
2023-01-15T23:08:49.577Z,1.41
2023-01-15T23:11:18.818Z,1.49
2023-01-15T23:13:50.861Z,1.47
2023-01-15T23:16:20.664Z,1.41
2023-01-15T23:18:49.754Z,1.63
2023-01-15T23:21:22.744Z,1.39
2023-01-15T23:24:03.653Z,1.40
2023-01-15T23:26:35.127Z,1.26
2023-01-15T23:29:05.156Z,1.07
2023-01-15T23:31:35.427Z,1.15
2023-01-15T23:34:05.948Z,1.33
2023-01-15T23:36:35.430Z,1.27
2023-01-15T23:39:05.299Z,1.22
2023-01-15T23:41:57.530Z,1.43
2023-01-15T23:44:45.339Z,1.39
2023-01-15T23:47:14.598Z,1.31
2023-01-15T23:49:47.066Z,1.28
2023-01-15T23:52:16.605Z,1.31
2023-01-15T23:54:44.771Z,1.26
2023-01-15T23:57:13.381Z,1.28
2023-01-15T23:59:45.762Z,1.28
